Aeroporto :
LOGIN :

Iscrizione | Disclaimer

   EN    FR    IT 

 










Sommario :    VFR   VFR Marginale   IFR   IFR Intensivo   IFR Molto Intensivo
Visibilità : 
Base nubi : 
>= 8 km
>= 3000ft
5 / 8 km
1000 / 3000 ft
1500m / 5 km
500 / 1000 ft
800 / 1500m
200 / 500 ft
< 800m
< 200 ft
Simboli :   Temporali  Nebbia  Neve Forte  Precipitazioni Forti  Vento > 20 kt
SIGMETs :   Varie  Temporali  Ghiacco  Turbolenza  Onda orograficha  Ceneri Vulcaniche






- Altitudine del aeroporto : 479 ft
- Codice IATA : DOL


LFRG - Deauville

ULTIMO METAR :
  • 021330Z AUTO 27013KT 9999 OVC034 10/05 Q1032 TEMPO BKN014

METARs OBSOLETI :
  • 021300Z AUTO 27013KT 9999 OVC032 09/05 Q1032 TEMPO BKN014
  • 021230Z AUTO 26012KT 230V290 9999 OVC033 10/06 Q1032 TEMPO BKN014
  • 021200Z AUTO 26013KT 9999 OVC033 10/06 Q1032 TEMPO BKN014
  • 021130Z AUTO 26012KT 9999 OVC032 10/05 Q1032 TEMPO BKN014
  • 021100Z AUTO 26012KT 9999 OVC032 09/05 Q1032 TEMPO BKN014

TAF TAF LFRG
Valido dal 02 a 12 ore il 02 a 21 ore UTC


021100Z 0212/0221 26010KT 9999 OVC035
PROB30
TEMPO 0212/0221 -RA BKN014
ATIS : +33 2 31 65 65 36



MetMap, La meteo Aeronautica in un colpo d'occhio ! - Copyright ORBIFLY Dicembre 2007 - Disclaimer

ORBIFLY MET'MAP TEAM :

Programmazione e sviluppo : Alexandra Zaïnal
Concezione : Baudouin d'Aumeries
Supporto tecnico e logistico : Manuel Goepfert
Aiuto : Marc-Olivier Méhu
Aiuto per la traduzione : Arnaldo La Scala




FONTI E CREDITI :

   NOAA